AirNav   Air Wisconsin Up To $57,000 Bonus
 
 950 users online  

6NC7 Circle P Farm Airport
Newport, North Carolina, USA

GOING TO NEWPORT?


FAA INFORMATION EFFECTIVE 01 DECEMBER 2022

Location

FAA Identifier: 6NC7
Lat/Long: 34-45-05.0000N 076-54-22.0000W
34-45.083333N 076-54.366667W
34.7513889,-76.9061111
(estimated)
Elevation: 30 ft. / 9 m (estimated)
Variation: 09W (1995)
From city: 6 miles SW of NEWPORT, NC
Time zone: UTC -5 (UTC -4 during Daylight Saving Time)
Zip code: 28570

Airport Operations

Airport use: Private use. Permission required prior to landing
Activation date: 06/1998
Control tower: no
ARTCC: WASHINGTON CENTER
FSS: RALEIGH FLIGHT SERVICE STATION
Attendance: UNATNDD
Wind indicator: yes
Segmented circle: no

Airport Communications

WX ASOS at MRH (12 nm E): 135.375 (252-728-2055)

Nearby radio navigation aids

VOR radial/distance  VOR name  Freq  Var
EWNr168/20.5NEW BERN VOR/DME113.6008W

 
NDB name  Hdg/Dist  Freq  Var  ID
DIXON076/29.119808WDIW -.. .. .--

Airport Services

Runway Information

Runway 5/23

Dimensions: 3000 x 80 ft. / 914 x 24 m
Surface: asphalt
RUNWAY 5  RUNWAY 23
Traffic pattern: leftleft

Airport Ownership and Management from official FAA records

Ownership: Privately-owned
Owner: W.F. PARKER
250 CHRIS ST
SWANSBORO, NC 28570
Phone (252) 241-0376
Manager: W.F. PARKER
250 CHRIS ST
SWANSBORO, NC 28570
Phone (252) 241-0376

Airport Operational Statistics

Aircraft based on the field: 2
Single engine airplanes: 1
Multi engine airplanes: 1
    

Additional Remarks

FOR CD CTC WASHINGTON ARTCC AT 703-771-3587.

Instrument Procedures

There are no published instrument procedures at 6NC7.

Some nearby airports with instrument procedures:

KNKT - Cherry Point Marine Corps Air Station (Cunningham Field) Airport (9 nm N)
KMRH - Michael J Smith Field Airport (12 nm E)
KEWN - Coastal Carolina Regional Airport (20 nm N)
KNCA - New River Marine Corps Air Station (McCutcheon Field) Airport (26 nm W)
KOAJ - Albert J Ellis Airport (35 nm W)
 
Loc | Ops | Rwys | IFR | FBO | Links
Com | Nav | Svcs | Stats | Notes
Area around 6NC7 (Circle P Farm Airport)
 
Road maps at: MapQuest Bing Google
 
Aerial photo
No photo
 
Sectional chart

 
Airport distance calculator
Flying to Circle P Farm Airport? Find the distance to fly.

From to 6NC7

Sunrise and sunset
Times for 06-Dec-2022
 Local
(UTC-5)
 Zulu
(UTC)
Morning civil twilight06:3411:34
Sunrise07:0212:02
Sunset16:5521:55
Evening civil twilight17:2322:23

Current date and time
Zulu (UTC)  07-Dec-2022 04:50:54
Local (UTC-5)  06-Dec-2022 23:50:54
 
METAR
KNJM 
7nm SW 
070357Z AUTO 16005KT 9SM OVC110 21/18 A3026 RMK AO2 SLP251 T02110178
KNKT 
8nm N 
070437Z 14003KT 3/4SM BR FEW005 OVC100 16/16 A3026 RMK AO2 T01610156
KMRH 
13nm E 
070358Z AUTO 16006KT 10SM CLR 18/18 A3026 RMK AO2 SLP247 T01830178
TAF
KNKT 
8nm N 
0703/0803 VRB06KT 9999 SCT100 QNH3022INS TEMPO 0703/0709 3200 BR BECMG 0709/0711 VRB06KT 9999 BKN030 OVC050 QNH3018INS T16/0709Z T22/0719Z
NOTAMs
Click for the latest NOTAMs
NOTAMs are issued by the DoD/FAA and will open in a separate window not controlled by AirNav.

 

 
 

Would you like to see your business listed on this page?

 If your business provides an interesting product or service to pilots, flight crews, aircraft, or users of the Circle P Farm Airport, you should consider listing it here.  To start the listing process, click on the button below
 
Add a business
 

Other Pages about Circle P Farm Airport

Update a link
 
Copyright © AirNav, LLC. All rights reserved. Privacy Policy  Contact